AirNav   Air Wisconsin Up To $57,000 Bonus
 
 1408 users online  

3W2 Put in Bay Airport
Put In Bay, Ohio, USA

GOING TO PUT IN BAY?


FAA INFORMATION EFFECTIVE 11 AUGUST 2022

Location

FAA Identifier: 3W2
Lat/Long: 41-38-12.0000N 082-49-42.0000W
41-38.200000N 082-49.700000W
41.6366667,-82.8283333
(estimated)
Elevation: 595 ft. / 181.4 m (surveyed)
Variation: 07W (2000)
From city: 1 mile SW of PUT IN BAY, OH
Time zone: UTC -4 (UTC -5 during Standard Time)
Zip code: 43456

Airport Operations

Airport use: Open to the public
Activation date: 12/1938
Control tower: no
ARTCC: CLEVELAND CENTER
FSS: CLEVELAND FLIGHT SERVICE STATION
NOTAMs facility: CLE (NOTAM-D service available)
Attendance: IREG
Wind indicator: yes
Segmented circle: yes
Beacon: white-green (lighted land airport)
Operates sunset to sunrise.
Landing fee: yes, PRKG/RAMP FEES FOR ALL PVT & COML ACFT; ALL PILOTS ARE RQRD TO CK IN AT ARPT OFC AT TIME OF ARR; ALL ACFT RQRD TO SHUT DOWN ENGINE(S) WHEN ENPLANING/DEPLANING PAX.

Airport Communications

CTAF/UNICOM: 122.8
WX AWOS-3 at PCW (7 nm S): 118.775 (419-734-9955)

Nearby radio navigation aids

VOR radial/distance  VOR name  Freq  Var
DJBr304/34.3DRYER VOR/DME113.6005W
CRLr134/37.4CARLETON VOR/DME115.7003W

 
NDB name  Hdg/Dist  Freq  Var  ID
PORT CLINTON021/7.342307WPCW .--. -.-. .--
GROSSE ILE160/31.441907WRYS .-. -.-- ...
TIFFIN033/36.926905WTII - .. ..

Airport Services

Parking: hangars and tiedowns
Airframe service: MAJOR
Powerplant service: MAJOR

Runway Information

Runway 3/21

Dimensions: 2870 x 75 ft. / 875 x 23 m
Surface: asphalt, in good condition
RUNWAY 3  RUNWAY 21
Latitude: 41-38.001702N41-38.398105N
Longitude: 082-49.870983W082-49.528005W
Elevation: 592.2 ft.594.5 ft.
Traffic pattern: rightleft
Displaced threshold: 450 ft.657 ft.
Markings: basic, in good conditionbasic, in good condition
Runway end identifier lights: nono
Touchdown point: yes, no lightsyes, no lights
Obstructions: 50 ft. trees, 405 ft. from runway, 140 ft. both sides of centerline, 4:1 slope to clear
+0-5 FT FENCE, 200 FT DIST, 125 FT R, EXTDG TO 250 FT FM DTHR, 125 FT R.
5 ft. fence, 201 ft. from runway, 120 ft. left and right of centerline
+5 FT FENCE, 200 FT DIST, 120 FT R, EXTDG TO DTHR, 125 FT L & R.

Airport Ownership and Management from official FAA records

Ownership: Publicly-owned
Owner: PUT IN BAY TOWNSHIP PORT AUTH
PO BOX 278
PUT IN BAY, OH 43456-0278
Phone 419-285-3371
Manager: ROSANN KEISER
PO BOX 278
PUT IN BAY, OH 43456-0278
Phone 419-285-3371

Airport Operational Statistics

Aircraft based on the field: 10
Single engine airplanes: 9
Helicopters: 1
    
Aircraft operations: avg 41/day *
48% air taxi
42% transient general aviation
10% local general aviation
* for 12-month period ending 01 October 2021

Additional Remarks

FOR CD CTC CLEVELAND APCH AT 216-352-2323.
EXP MOD TURB ON APCH/DEP WHEN WIND EXCEEDS 10 KT.
ACFT LDG RWY 21 OR DEP RWY 03 RMN 1000 FT CLEAR OF PERRY'S MONUMENT 352 FT AGL (942 FT MSL) 1.3 NM NE OF ARPT.
ACFT OPS PROHIBITED DUSK-DAWN.
HELIPAD IS FOR TOUCHDOWN, LOADING, & LIFTOFF ONLY - PARK ON GRASS WEST & SW OF HELIPAD.
BIRDS & OTR WILDLIFE INVOF ARPT.
DECOY COYOTE NEAR MOVEMENT AREAS.

Instrument Procedures

There are no published instrument procedures at 3W2.

Some nearby airports with instrument procedures:

KPCW - Erie-Ottawa International Airport (7 nm S)
S24 - Sandusky County Regional Airport (23 nm SW)
14G - Fremont Airport (24 nm SW)
5A1 - Norwalk-Huron County Airport (27 nm SE)
KTDZ - Toledo Executive Airport (30 nm W)
 
Loc | Ops | Rwys | IFR | FBO | Links
Com | Nav | Svcs | Stats | Notes
Area around 3W2 (Put in Bay Airport)
 
Road maps at: MapQuest Bing Google
 
Aerial photo
WARNING: Photo may not be current or correct
Aerial photo of 3W2 (Put in Bay Airport)
Photo by David Newcomer
Photo taken 22-Sep-2017
from 3,000' altitude looking north.

Do you have a better or more recent aerial photo of Put in Bay Airport that you would like to share? If so, please send us your photo.

 
Sectional chart

 
Airport distance calculator
Flying to Put in Bay Airport? Find the distance to fly.

From to 3W2

Sunrise and sunset
Times for 18-Aug-2022
 Local
(UTC-4)
 Zulu
(UTC)
Morning civil twilight06:1410:14
Sunrise06:4410:44
Sunset20:2600:26
Evening civil twilight20:5600:56

Current date and time
Zulu (UTC)  18-Aug-2022 23:05:10
Local (UTC-4)  18-Aug-2022 19:05:10
 
METAR
KPCW 
7nm S 
182255Z AUTO 27005KT 10SM FEW050 27/16 A2996 RMK AO2
TAF
CYQG 
39nm N 
182206Z 1822/1918 26006KT P6SM BKN050 BKN070 TEMPO 1822/1901 P6SM -SHRA VCTS OVC060CB FM190100 VRB03KT P6SM SCT050 FM190600 VRB03KT P6SM SKC PROB30 1908/1911 2SM BR FM191300 23005KT P6SM SKC FM191700 20010KT P6SM SCT060 RMK FCST BASED ON AUTO OBS. NXT FCST BY 190000Z
KDTW 
42nm NW 
182041Z 1821/1924 25009KT P6SM SCT050 BKN100 TEMPO 1821/1823 BKN060 FM190100 VRB02KT P6SM FEW050 TEMPO 1907/1911 5SM BR FM191500 24007KT P6SM SCT050 TEMPO 1918/1922 BKN050
KTOL 
44nm W 
181739Z 1818/1918 VRB03KT P6SM SCT250
KCLE 
46nm E 
182051Z 1821/1924 35010KT P6SM SCT250 FM190000 VRB04KT P6SM SCT250
KDET 
47nm N 
181720Z 1818/1918 22007KT P6SM SCT050 FM190100 VRB02KT P6SM FEW050 FM191500 24007KT P6SM SCT050
KYIP 
48nm NW 
181120Z 1812/1912 30003KT P6SM FEW250 TEMPO 1812/1813 5SM BR FM181600 22007KT P6SM SCT060 SCT220 FM190100 VRB02KT P6SM SCT050
NOTAMs
Click for the latest NOTAMs
NOTAMs are issued by the DoD/FAA and will open in a separate window not controlled by AirNav.

 

 
 

Getting Around: Taxi, Limo, Rental Cars, Mass Transit

  
 Business Name 
 
 Contact 
 
Services / Description
 
Comments
  
Erie Island Carts 419-285-5278
[web site]
[email]
Ground transportation

More info about Erie Island Carts
 
   2 read write
 

Would you like to see your business listed on this page?

 If your business provides an interesting product or service to pilots, flight crews, aircraft, or users of the Put in Bay Airport, you should consider listing it here.  To start the listing process, click on the button below
 
Add a business
 

Other Pages about Put in Bay Airport

Put-in-Bay Airport
 
Update a link
 
Copyright © AirNav, LLC. All rights reserved. Privacy Policy  Contact